createdAt,value
2022-08-20T00:02:21.157Z,16.00
2022-08-20T00:04:50.304Z,16.05
2022-08-20T00:07:20.380Z,14.57
2022-08-20T00:09:49.603Z,14.98
2022-08-20T00:12:20.710Z,15.98
2022-08-20T00:14:49.984Z,15.15
2022-08-20T00:17:19.247Z,15.85
2022-08-20T00:19:49.059Z,13.88
2022-08-20T00:22:18.405Z,15.15
2022-08-20T00:24:47.581Z,15.63
2022-08-20T00:27:16.642Z,15.65
2022-08-20T00:29:48.066Z,15.75
2022-08-20T00:32:17.758Z,15.90
2022-08-20T00:34:47.319Z,15.65
2022-08-20T00:37:17.674Z,15.68
2022-08-20T00:39:46.984Z,15.75
2022-08-20T00:42:16.279Z,15.60
2022-08-20T00:44:49.209Z,16.08
2022-08-20T00:47:19.225Z,16.27
2022-08-20T00:49:48.316Z,15.27
2022-08-20T00:52:21.760Z,15.57
2022-08-20T00:54:55.006Z,14.63
2022-08-20T00:57:28.587Z,14.10
2022-08-20T01:00:22.462Z,14.73
2022-08-20T01:02:52.471Z,14.45
2022-08-20T01:05:23.193Z,14.65
2022-08-20T01:07:59.897Z,14.00
2022-08-20T01:10:31.444Z,13.07
2022-08-20T01:15:33.833Z,13.48
2022-08-20T01:18:04.419Z,13.27
2022-08-20T01:20:39.314Z,13.13
2022-08-20T01:23:30.266Z,14.05
2022-08-20T01:26:06.267Z,13.35
2022-08-20T01:28:43.201Z,12.65
2022-08-20T01:31:16.045Z,13.20
2022-08-20T01:33:47.947Z,12.23
2022-08-20T01:36:20.460Z,11.77
2022-08-20T01:38:54.103Z,12.18
2022-08-20T01:41:45.004Z,12.48
2022-08-20T01:44:16.921Z,11.15
2022-08-20T01:46:49.916Z,10.57
2022-08-20T01:49:23.192Z,11.25
2022-08-20T01:51:54.092Z,11.13
2022-08-20T01:54:24.152Z,11.35
2022-08-20T01:56:59.528Z,10.93
2022-08-20T01:59:29.073Z,10.93
2022-08-20T02:01:58.740Z,9.65
2022-08-20T02:04:28.577Z,10.98
2022-08-20T02:07:01.093Z,10.32
2022-08-20T02:09:33.387Z,10.07
2022-08-20T02:12:05.592Z,11.75
2022-08-20T02:14:38.271Z,10.00
2022-08-20T02:17:08.228Z,10.35
2022-08-20T02:19:42.287Z,10.45
2022-08-20T02:22:19.175Z,9.38
2022-08-20T02:24:48.580Z,10.68
2022-08-20T02:27:23.190Z,10.40
2022-08-20T02:29:52.645Z,9.57
2022-08-20T02:32:32.507Z,11.73
2022-08-20T02:37:33.768Z,14.45
2022-08-20T02:40:04.110Z,14.80
2022-08-20T02:42:35.417Z,15.27
2022-08-20T02:45:07.328Z,17.00
2022-08-20T02:47:36.923Z,17.17
2022-08-20T02:50:08.070Z,17.55
2022-08-20T02:52:37.818Z,19.30
2022-08-20T02:55:08.033Z,18.83
2022-08-20T02:57:49.516Z,20.52
2022-08-20T03:00:24.986Z,21.08
2022-08-20T03:02:54.388Z,22.55
2022-08-20T03:05:23.574Z,18.88
2022-08-20T03:07:56.121Z,20.17
2022-08-20T03:10:27.544Z,21.23
2022-08-20T03:12:59.552Z,22.40
2022-08-20T03:15:30.800Z,19.75
2022-08-20T03:18:03.072Z,19.90
2022-08-20T03:20:32.919Z,19.85
2022-08-20T03:23:02.062Z,18.02
2022-08-20T03:25:31.631Z,16.85
2022-08-20T03:28:03.697Z,15.52
2022-08-20T03:30:33.790Z,15.75
2022-08-20T03:33:03.090Z,13.63
2022-08-20T03:35:33.810Z,12.27
2022-08-20T03:38:03.577Z,10.07
2022-08-20T03:40:36.875Z,11.27
2022-08-20T03:43:10.755Z,11.35
2022-08-20T03:45:42.284Z,11.93
2022-08-20T03:48:14.162Z,10.82
2022-08-20T03:50:43.777Z,12.30
2022-08-20T03:53:14.630Z,12.05
2022-08-20T03:55:53.915Z,11.88
2022-08-20T03:58:34.948Z,10.85
2022-08-20T04:01:12.622Z,10.73
2022-08-20T04:03:58.421Z,7.93
2022-08-20T04:06:28.793Z,10.30
2022-08-20T04:08:58.094Z,9.23
2022-08-20T04:11:27.237Z,8.70
2022-08-20T04:13:58.373Z,10.00
2022-08-20T04:19:02.460Z,8.70
2022-08-20T04:21:33.033Z,9.50
2022-08-20T04:24:06.199Z,8.57
2022-08-20T04:26:36.897Z,8.63
2022-08-20T04:29:07.996Z,7.90
2022-08-20T04:31:37.175Z,7.82
2022-08-20T04:34:07.745Z,8.30
2022-08-20T04:36:37.146Z,8.48
2022-08-20T04:39:07.372Z,7.97
2022-08-20T04:41:36.543Z,7.93
2022-08-20T04:44:07.900Z,8.35
2022-08-20T04:46:37.256Z,8.38
2022-08-20T04:49:07.465Z,6.50
2022-08-20T04:51:36.685Z,8.25
2022-08-20T04:54:06.273Z,7.80
2022-08-20T04:56:38.601Z,8.25
2022-08-20T04:59:10.206Z,8.20
2022-08-20T05:01:39.400Z,8.63
2022-08-20T05:04:08.605Z,8.85
2022-08-20T05:06:38.190Z,8.23
2022-08-20T05:09:07.534Z,8.60
2022-08-20T05:11:37.504Z,8.40
2022-08-20T05:14:10.732Z,8.23
2022-08-20T05:16:41.504Z,8.30
2022-08-20T05:19:12.708Z,9.30
2022-08-20T05:21:42.989Z,8.20
2022-08-20T05:24:12.535Z,8.07
2022-08-20T05:26:41.924Z,7.53
2022-08-20T05:29:13.217Z,7.07
2022-08-20T05:31:42.779Z,7.45
2022-08-20T05:34:14.122Z,7.63
2022-08-20T05:36:48.095Z,6.93
2022-08-20T05:39:20.512Z,6.97
2022-08-20T05:41:51.566Z,6.10
2022-08-20T05:44:23.165Z,6.53
2022-08-20T05:46:52.333Z,6.50
2022-08-20T05:49:23.178Z,6.18
2022-08-20T05:51:52.894Z,5.65
2022-08-20T05:54:24.031Z,5.28
2022-08-20T05:56:53.638Z,5.38
2022-08-20T05:59:24.918Z,5.43
2022-08-20T06:01:54.482Z,5.35
2022-08-20T06:04:24.433Z,4.95
2022-08-20T06:06:54.786Z,5.07
2022-08-20T06:09:28.618Z,4.80
2022-08-20T06:12:04.427Z,4.70
2022-08-20T06:14:36.567Z,4.30
2022-08-20T06:17:08.402Z,4.32
2022-08-20T06:19:39.148Z,4.40
2022-08-20T06:22:20.492Z,4.10
2022-08-20T06:24:56.088Z,4.35
2022-08-20T06:27:25.792Z,4.20
2022-08-20T06:29:57.337Z,4.13
2022-08-20T06:32:31.754Z,4.03
2022-08-20T06:35:03.989Z,4.50
2022-08-20T06:37:36.133Z,4.45
2022-08-20T06:40:11.650Z,4.20
2022-08-20T06:42:47.767Z,4.18
2022-08-20T06:45:24.083Z,4.72
2022-08-20T06:47:55.365Z,4.35
2022-08-20T06:50:28.085Z,4.30
2022-08-20T06:52:57.514Z,4.20
2022-08-20T06:55:26.713Z,4.25
2022-08-20T06:58:00.014Z,3.83
2022-08-20T07:00:37.284Z,4.03
2022-08-20T07:03:09.325Z,4.30
2022-08-20T07:05:42.598Z,3.95
2022-08-20T07:08:13.334Z,4.22
2022-08-20T07:10:43.661Z,4.25
2022-08-20T07:13:15.348Z,3.65
2022-08-20T07:15:46.981Z,4.20
2022-08-20T07:18:16.929Z,4.20
2022-08-20T07:20:58.311Z,4.22
2022-08-20T07:23:27.985Z,4.50
2022-08-20T07:25:57.953Z,3.92
2022-08-20T07:28:30.476Z,4.32
2022-08-20T07:31:15.995Z,4.45
2022-08-20T07:33:46.345Z,4.07
2022-08-20T07:36:15.631Z,4.60
2022-08-20T07:38:46.213Z,4.22
2022-08-20T07:41:15.632Z,4.27
2022-08-20T07:43:46.283Z,4.20
2022-08-20T07:46:21.599Z,3.22
2022-08-20T07:48:52.061Z,3.88
2022-08-20T07:51:23.417Z,3.92
2022-08-20T07:53:53.754Z,3.92
2022-08-20T07:56:26.234Z,3.67
2022-08-20T07:58:59.434Z,5.70
2022-08-20T08:01:33.514Z,4.35
2022-08-20T08:04:04.193Z,4.18
2022-08-20T08:06:34.325Z,4.28
2022-08-20T08:09:07.114Z,4.22
2022-08-20T08:11:39.113Z,4.65
2022-08-20T08:14:09.815Z,4.38
2022-08-20T08:16:44.834Z,4.15
2022-08-20T08:19:16.590Z,4.13
2022-08-20T08:21:46.260Z,4.07
2022-08-20T08:24:21.810Z,4.10
2022-08-20T08:26:53.564Z,4.07
2022-08-20T08:29:22.674Z,4.78
2022-08-20T08:31:53.893Z,4.65
2022-08-20T08:34:24.910Z,4.95
2022-08-20T08:36:56.254Z,4.60
2022-08-20T08:42:04.777Z,4.70
2022-08-20T08:44:39.149Z,4.93
2022-08-20T08:47:21.484Z,4.90
2022-08-20T08:49:50.829Z,5.82
2022-08-20T08:52:24.532Z,5.97
2022-08-20T08:54:58.470Z,5.40
2022-08-20T08:57:28.943Z,6.07
2022-08-20T09:00:04.876Z,6.22
2022-08-20T09:02:38.665Z,6.25
2022-08-20T09:05:17.017Z,6.32
2022-08-20T09:07:53.144Z,6.70
2022-08-20T09:10:23.889Z,6.75
2022-08-20T09:12:53.273Z,7.00
2022-08-20T09:15:25.309Z,8.20
2022-08-20T09:17:56.534Z,8.32
2022-08-20T09:20:29.347Z,8.65
2022-08-20T09:22:58.794Z,9.38
2022-08-20T09:25:28.444Z,9.60
2022-08-20T09:27:57.537Z,10.05
2022-08-20T09:30:26.789Z,10.18
2022-08-20T09:33:01.204Z,9.10
2022-08-20T09:35:31.666Z,9.60
2022-08-20T09:38:00.744Z,10.00
2022-08-20T09:40:29.862Z,9.73
2022-08-20T09:42:59.575Z,9.95
2022-08-20T09:45:29.434Z,9.82
2022-08-20T09:48:00.641Z,10.02
2022-08-20T09:50:33.374Z,9.77
2022-08-20T09:53:04.296Z,9.90
2022-08-20T09:55:38.372Z,9.48
2022-08-20T09:58:23.496Z,9.75
2022-08-20T10:00:53.161Z,10.10
2022-08-20T10:03:24.288Z,8.63
2022-08-20T10:05:53.467Z,9.40
2022-08-20T10:08:22.703Z,7.13
2022-08-20T10:10:51.839Z,7.85
2022-08-20T10:13:20.954Z,10.02
2022-08-20T10:15:50.224Z,8.02
2022-08-20T10:18:19.580Z,8.43
2022-08-20T10:20:50.704Z,8.60
2022-08-20T10:23:20.360Z,8.98
2022-08-20T10:25:49.677Z,8.93
2022-08-20T10:28:19.151Z,8.25
2022-08-20T10:30:48.393Z,8.35
2022-08-20T10:33:17.618Z,7.85
2022-08-20T10:35:47.083Z,8.40
2022-08-20T10:38:18.227Z,8.13
2022-08-20T10:40:49.821Z,7.45
2022-08-20T10:43:21.976Z,6.85
2022-08-20T10:45:52.853Z,7.63
2022-08-20T10:48:22.117Z,6.68
2022-08-20T10:50:51.627Z,6.65
2022-08-20T10:53:23.073Z,4.85
2022-08-20T10:55:52.296Z,6.25
2022-08-20T10:58:23.778Z,6.10
2022-08-20T11:00:53.697Z,6.00
2022-08-20T11:03:23.027Z,4.78
2022-08-20T11:05:52.165Z,5.82
2022-08-20T11:08:33.566Z,5.80
2022-08-20T11:11:03.980Z,5.50
2022-08-20T11:13:33.084Z,4.53
2022-08-20T11:16:03.518Z,5.13
2022-08-20T11:18:33.102Z,5.43
2022-08-20T11:21:02.340Z,4.07
2022-08-20T11:23:33.396Z,3.72
2022-08-20T11:26:02.771Z,5.05
2022-08-20T11:28:32.843Z,5.20
2022-08-20T11:31:03.407Z,4.03
2022-08-20T11:33:32.850Z,3.67
2022-08-20T11:36:02.031Z,3.65
2022-08-20T11:38:33.811Z,2.78
2022-08-20T11:41:03.135Z,2.80
2022-08-20T11:43:32.265Z,3.58
2022-08-20T11:46:01.479Z,3.25
2022-08-20T11:48:30.641Z,3.60
2022-08-20T11:50:59.893Z,3.50
2022-08-20T11:53:29.025Z,3.70
2022-08-20T11:56:03.053Z,4.05
2022-08-20T11:58:33.387Z,3.58
2022-08-20T12:01:02.589Z,3.80
2022-08-20T12:03:32.501Z,3.92
2022-08-20T12:06:01.705Z,4.03
2022-08-20T12:08:30.963Z,3.20
2022-08-20T12:11:05.206Z,3.42
2022-08-20T12:13:47.890Z,3.80
2022-08-20T12:16:21.258Z,3.80
2022-08-20T12:18:51.560Z,3.42
2022-08-20T12:21:20.617Z,3.88
2022-08-20T12:23:49.948Z,3.05
2022-08-20T12:26:21.204Z,3.47
2022-08-20T12:28:50.479Z,3.72
2022-08-20T12:31:19.560Z,3.88
2022-08-20T12:33:48.720Z,3.08
2022-08-20T12:36:17.983Z,3.15
2022-08-20T12:38:49.311Z,3.22
2022-08-20T12:41:29.394Z,3.38
2022-08-20T12:43:58.601Z,3.45
2022-08-20T12:46:27.826Z,3.90
2022-08-20T12:48:57.026Z,3.15
2022-08-20T12:57:26.373Z,3.78
2022-08-20T12:59:56.840Z,3.75
2022-08-20T13:02:28.901Z,4.40
2022-08-20T13:05:04.307Z,4.28
2022-08-20T13:07:38.517Z,3.47
2022-08-20T13:10:14.706Z,4.07
2022-08-20T13:12:46.423Z,4.07
2022-08-20T13:15:18.723Z,3.08
2022-08-20T13:17:52.177Z,4.85
2022-08-20T13:20:24.828Z,3.58
2022-08-20T13:22:55.060Z,7.05
2022-08-20T13:25:27.008Z,4.53
2022-08-20T13:28:04.170Z,4.63
2022-08-20T13:30:37.051Z,6.93
2022-08-20T13:33:07.240Z,5.13
2022-08-20T13:35:37.139Z,4.57
2022-08-20T13:38:07.270Z,4.63
2022-08-20T13:40:37.583Z,4.28
2022-08-20T13:43:12.021Z,6.47
2022-08-20T13:45:42.977Z,2.85
2022-08-20T13:48:15.560Z,3.85
2022-08-20T13:50:48.871Z,4.50
2022-08-20T13:53:18.496Z,4.18
2022-08-20T13:55:48.130Z,4.20
2022-08-20T13:58:19.611Z,4.80
2022-08-20T14:00:48.984Z,4.47
2022-08-20T14:03:19.773Z,4.82
2022-08-20T14:05:49.741Z,6.00
2022-08-20T14:08:21.646Z,5.00
2022-08-20T14:10:52.582Z,4.43
2022-08-20T14:13:26.801Z,4.93
2022-08-20T14:15:56.348Z,2.53
2022-08-20T14:18:25.567Z,3.45
2022-08-20T14:20:54.729Z,4.30
2022-08-20T14:23:24.301Z,3.15
2022-08-20T14:25:53.595Z,4.32
2022-08-20T14:28:26.326Z,5.15
2022-08-20T14:30:55.651Z,3.90
2022-08-20T14:33:26.223Z,4.97
2022-08-20T14:35:55.575Z,4.40
2022-08-20T14:38:24.662Z,3.25
2022-08-20T14:40:53.924Z,3.30
2022-08-20T14:43:24.970Z,3.70
2022-08-20T14:45:54.557Z,3.03
2022-08-20T14:48:25.015Z,4.30
2022-08-20T14:50:55.432Z,5.67
2022-08-20T14:53:24.747Z,2.92
2022-08-20T14:55:54.380Z,3.88
2022-08-20T14:58:25.420Z,3.05
2022-08-20T15:00:55.863Z,2.58
2022-08-20T15:03:30.028Z,3.22
2022-08-20T15:06:00.119Z,3.85
2022-08-20T15:08:29.685Z,2.45
2022-08-20T15:10:59.035Z,3.22
2022-08-20T15:13:30.612Z,2.88
2022-08-20T15:15:59.880Z,2.30
2022-08-20T15:18:29.218Z,3.10
2022-08-20T15:20:58.528Z,3.42
2022-08-20T15:23:27.882Z,2.80
2022-08-20T15:25:57.290Z,3.00
2022-08-20T15:28:26.579Z,3.20
2022-08-20T15:30:57.793Z,2.10
2022-08-20T15:33:26.922Z,2.05
2022-08-20T15:35:56.127Z,4.40
2022-08-20T15:38:25.403Z,3.88
2022-08-20T15:40:54.567Z,4.70
2022-08-20T15:43:23.718Z,3.67
2022-08-20T15:45:52.998Z,3.40
2022-08-20T15:48:33.098Z,3.53
2022-08-20T15:51:16.675Z,2.63
2022-08-20T15:53:57.056Z,2.78
2022-08-20T15:56:48.169Z,3.25
2022-08-20T15:59:38.183Z,1.83
2022-08-20T16:02:25.862Z,3.08
2022-08-20T16:05:09.091Z,2.22
2022-08-20T16:07:49.659Z,3.25
2022-08-20T16:10:24.505Z,3.50
2022-08-20T16:12:56.878Z,3.00
2022-08-20T16:15:27.849Z,3.03
2022-08-20T16:18:08.268Z,3.25
2022-08-20T16:20:44.350Z,3.47
2022-08-20T16:23:19.432Z,3.65
2022-08-20T16:26:01.796Z,3.13
2022-08-20T16:28:43.789Z,3.65
2022-08-20T16:31:19.025Z,3.33
2022-08-20T16:33:55.685Z,3.08
2022-08-20T16:36:35.148Z,3.88
2022-08-20T16:39:08.784Z,3.90
2022-08-20T16:41:41.833Z,3.72
2022-08-20T16:44:18.704Z,3.97
2022-08-20T16:46:53.718Z,3.75
2022-08-20T16:49:24.375Z,3.42
2022-08-20T16:51:55.968Z,3.40
2022-08-20T16:57:03.824Z,3.45
2022-08-20T16:59:34.410Z,3.45
2022-08-20T17:02:10.061Z,3.45
2022-08-20T17:04:58.733Z,4.80
2022-08-20T17:07:46.152Z,3.97
2022-08-20T17:10:22.302Z,3.97
2022-08-20T17:13:00.096Z,3.78
2022-08-20T17:15:32.962Z,3.38
2022-08-20T17:18:22.868Z,4.32
2022-08-20T17:20:54.858Z,3.97
2022-08-20T17:23:26.069Z,4.20
2022-08-20T17:26:01.404Z,4.72
2022-08-20T17:28:35.207Z,3.65
2022-08-20T17:31:05.028Z,4.25
2022-08-20T17:33:38.844Z,3.70
2022-08-20T17:36:12.127Z,3.85
2022-08-20T17:38:49.117Z,3.75
2022-08-20T17:41:23.842Z,5.28
2022-08-20T17:43:59.605Z,4.20
2022-08-20T17:46:32.361Z,3.70
2022-08-20T17:49:07.282Z,3.45
2022-08-20T17:51:40.547Z,4.05
2022-08-20T17:54:17.652Z,4.15
2022-08-20T17:56:46.912Z,3.50
2022-08-20T17:59:33.692Z,3.05
2022-08-20T18:02:17.654Z,3.38
2022-08-20T18:04:48.109Z,3.93
2022-08-20T18:07:25.713Z,3.20
2022-08-20T18:10:03.433Z,3.25
2022-08-20T18:12:37.960Z,3.30
2022-08-20T18:15:19.290Z,3.67
2022-08-20T18:18:17.404Z,3.45
2022-08-20T18:21:16.112Z,3.20
2022-08-20T18:23:50.172Z,3.88
2022-08-20T18:26:28.289Z,3.85
2022-08-20T18:29:01.336Z,4.30
2022-08-20T18:31:34.307Z,4.70
2022-08-20T18:34:13.826Z,4.78
2022-08-20T18:36:43.902Z,4.43
2022-08-20T18:39:26.460Z,4.07
2022-08-20T18:42:03.781Z,5.45
2022-08-20T18:44:41.133Z,4.30
2022-08-20T18:47:22.779Z,4.47
2022-08-20T18:50:06.142Z,3.90
2022-08-20T18:52:49.532Z,4.68
2022-08-20T18:55:32.489Z,3.88
2022-08-20T18:58:08.921Z,4.20
2022-08-20T19:00:42.947Z,4.35
2022-08-20T19:03:21.652Z,4.65
2022-08-20T19:06:08.033Z,4.63
2022-08-20T19:08:47.219Z,4.07
2022-08-20T19:11:31.146Z,4.10
2022-08-20T19:14:27.791Z,4.45
2022-08-20T19:17:04.117Z,3.92
2022-08-20T19:19:33.685Z,4.63
2022-08-20T19:22:04.874Z,4.95
2022-08-20T19:24:43.213Z,4.25
2022-08-20T19:27:14.282Z,4.55
2022-08-20T19:29:49.945Z,4.63
2022-08-20T19:32:28.369Z,4.90
2022-08-20T19:35:00.557Z,4.22
2022-08-20T19:37:40.043Z,4.03
2022-08-20T19:40:28.565Z,4.30
2022-08-20T19:42:59.849Z,5.43
2022-08-20T19:45:39.025Z,5.60
2022-08-20T19:48:26.943Z,4.82
2022-08-20T19:51:06.444Z,4.90
2022-08-20T19:53:37.845Z,4.55
2022-08-20T19:56:11.680Z,4.05
2022-08-20T19:58:42.432Z,4.13
2022-08-20T20:01:20.029Z,4.88
2022-08-20T20:03:58.412Z,4.85
2022-08-20T20:06:28.924Z,5.10
2022-08-20T20:09:01.644Z,5.25
2022-08-20T20:11:36.539Z,5.50
2022-08-20T20:14:11.474Z,6.10
2022-08-20T20:16:44.638Z,6.95
2022-08-20T20:19:26.373Z,6.53
2022-08-20T20:22:18.393Z,6.57
2022-08-20T20:24:59.580Z,6.10
2022-08-20T20:27:32.621Z,6.32
2022-08-20T20:30:03.867Z,6.35
2022-08-20T20:32:36.253Z,7.20
2022-08-20T20:35:08.353Z,6.93
2022-08-20T20:37:50.665Z,6.85
2022-08-20T20:40:27.084Z,6.68
2022-08-20T20:43:03.880Z,6.35
2022-08-20T20:45:37.073Z,7.10
2022-08-20T20:48:19.462Z,6.70
2022-08-20T20:50:50.613Z,7.32
2022-08-20T20:53:32.471Z,7.20
2022-08-20T20:56:34.705Z,6.28
2022-08-20T20:59:06.985Z,6.82
2022-08-20T21:01:48.967Z,6.90
2022-08-20T21:04:23.783Z,6.40
2022-08-20T21:06:55.568Z,5.90
2022-08-20T21:11:56.199Z,5.55
2022-08-20T21:14:25.310Z,5.35
2022-08-20T21:16:55.617Z,5.78
2022-08-20T21:19:30.104Z,5.78
2022-08-20T21:21:59.311Z,6.38
2022-08-20T21:24:29.168Z,6.68
2022-08-20T21:26:58.839Z,6.40
2022-08-20T21:29:32.705Z,6.78
2022-08-20T21:32:02.503Z,7.18
2022-08-20T21:34:33.840Z,7.03
2022-08-20T21:37:03.014Z,7.68
2022-08-20T21:39:32.415Z,6.95
2022-08-20T21:42:04.892Z,7.32
2022-08-20T21:44:50.357Z,7.30
2022-08-20T21:47:20.090Z,8.70
2022-08-20T21:49:51.521Z,8.73
2022-08-20T21:52:21.179Z,9.07
2022-08-20T21:54:50.371Z,9.60
2022-08-20T21:57:22.838Z,9.65
2022-08-20T21:59:52.635Z,10.35
2022-08-20T22:02:25.356Z,10.30
2022-08-20T22:04:57.174Z,11.73
2022-08-20T22:09:54.965Z,11.23
2022-08-20T22:12:27.585Z,12.10
2022-08-20T22:14:57.341Z,13.65
2022-08-20T22:17:26.575Z,15.18
2022-08-20T22:19:57.754Z,14.00
2022-08-20T22:22:27.085Z,15.25
2022-08-20T22:24:56.210Z,17.02
2022-08-20T22:27:25.504Z,17.13
2022-08-20T22:29:56.095Z,16.50
2022-08-20T22:32:33.458Z,17.05
2022-08-20T22:35:17.391Z,20.50
2022-08-20T22:37:46.664Z,20.15
2022-08-20T22:40:15.882Z,21.52
2022-08-20T22:42:45.180Z,22.55
2022-08-20T22:45:14.931Z,22.75
2022-08-20T22:47:44.947Z,22.92
2022-08-20T22:50:16.876Z,25.98
2022-08-20T22:52:46.276Z,23.00
2022-08-20T22:55:15.682Z,24.27
2022-08-20T22:57:45.100Z,23.00
2022-08-20T23:00:17.624Z,24.55
2022-08-20T23:02:51.846Z,25.45
2022-08-20T23:05:25.363Z,25.70
2022-08-20T23:07:56.244Z,26.55
2022-08-20T23:10:26.491Z,25.63
2022-08-20T23:12:56.713Z,26.90
2022-08-20T23:15:27.489Z,25.00
2022-08-20T23:18:02.542Z,24.20
2022-08-20T23:20:33.648Z,24.80
2022-08-20T23:23:04.580Z,27.38
2022-08-20T23:25:34.309Z,24.97
2022-08-20T23:28:04.406Z,26.48
2022-08-20T23:30:34.265Z,27.35
2022-08-20T23:33:03.713Z,23.23
2022-08-20T23:35:35.675Z,26.20
2022-08-20T23:38:05.354Z,25.70
2022-08-20T23:40:35.567Z,28.38
2022-08-20T23:43:06.205Z,24.83
2022-08-20T23:45:39.633Z,26.55
2022-08-20T23:48:09.584Z,25.13
2022-08-20T23:50:40.936Z,26.67
2022-08-20T23:53:11.275Z,26.63
2022-08-20T23:55:40.667Z,24.83
2022-08-20T23:58:10.110Z,26.77
